sensor_id;sensor_type;location;lat;lon;timestamp;P1;durP1;ratioP1;P2;durP2;ratioP2
51814;SDS011;37874;53.158;6.766;2024-03-08T00:01:32;5.57;;;4.30;;
51814;SDS011;37874;53.158;6.766;2024-03-08T00:03:58;5.30;;;4.18;;
51814;SDS011;37874;53.158;6.766;2024-03-08T00:06:27;6.00;;;4.05;;
51814;SDS011;37874;53.158;6.766;2024-03-08T00:09:02;4.93;;;3.80;;
51814;SDS011;37874;53.158;6.766;2024-03-08T00:11:29;4.93;;;3.92;;
51814;SDS011;37874;53.158;6.766;2024-03-08T00:13:56;5.43;;;4.18;;
51814;SDS011;37874;53.158;6.766;2024-03-08T00:16:27;4.78;;;3.85;;
51814;SDS011;37874;53.158;6.766;2024-03-08T00:18:55;6.07;;;4.00;;
51814;SDS011;37874;53.158;6.766;2024-03-08T00:21:21;5.63;;;4.35;;
51814;SDS011;37874;53.158;6.766;2024-03-08T00:23:46;5.53;;;4.10;;
51814;SDS011;37874;53.158;6.766;2024-03-08T00:26:17;4.93;;;4.22;;
51814;SDS011;37874;53.158;6.766;2024-03-08T00:28:44;5.05;;;3.85;;
51814;SDS011;37874;53.158;6.766;2024-03-08T00:31:18;6.03;;;4.20;;
51814;SDS011;37874;53.158;6.766;2024-03-08T00:33:45;5.72;;;4.57;;
51814;SDS011;37874;53.158;6.766;2024-03-08T00:36:10;5.22;;;4.28;;
51814;SDS011;37874;53.158;6.766;2024-03-08T00:38:36;5.85;;;4.55;;
51814;SDS011;37874;53.158;6.766;2024-03-08T00:41:07;6.20;;;4.60;;
51814;SDS011;37874;53.158;6.766;2024-03-08T00:43:33;5.63;;;4.43;;
51814;SDS011;37874;53.158;6.766;2024-03-08T00:46:03;5.88;;;4.50;;
51814;SDS011;37874;53.158;6.766;2024-03-08T00:48:29;5.32;;;4.00;;
51814;SDS011;37874;53.158;6.766;2024-03-08T00:50:57;5.85;;;4.55;;
51814;SDS011;37874;53.158;6.766;2024-03-08T00:53:25;6.25;;;5.13;;
51814;SDS011;37874;53.158;6.766;2024-03-08T00:58:48;5.05;;;4.28;;
51814;SDS011;37874;53.158;6.766;2024-03-08T01:01:19;6.13;;;4.93;;
51814;SDS011;37874;53.158;6.766;2024-03-08T01:03:45;6.38;;;4.70;;
51814;SDS011;37874;53.158;6.766;2024-03-08T01:06:12;5.70;;;4.70;;
51814;SDS011;37874;53.158;6.766;2024-03-08T01:08:42;6.75;;;5.05;;
51814;SDS011;37874;53.158;6.766;2024-03-08T01:11:08;5.88;;;4.65;;
51814;SDS011;37874;53.158;6.766;2024-03-08T01:13:37;5.57;;;4.57;;
51814;SDS011;37874;53.158;6.766;2024-03-08T01:16:03;5.53;;;4.43;;
51814;SDS011;37874;53.158;6.766;2024-03-08T01:18:29;5.70;;;4.30;;
51814;SDS011;37874;53.158;6.766;2024-03-08T01:20:59;5.45;;;4.28;;
51814;SDS011;37874;53.158;6.766;2024-03-08T01:23:27;5.75;;;4.47;;
51814;SDS011;37874;53.158;6.766;2024-03-08T01:25:53;5.65;;;4.43;;
51814;SDS011;37874;53.158;6.766;2024-03-08T01:28:23;6.90;;;4.70;;
51814;SDS011;37874;53.158;6.766;2024-03-08T01:30:51;5.28;;;4.47;;
51814;SDS011;37874;53.158;6.766;2024-03-08T01:33:34;6.13;;;5.07;;
51814;SDS011;37874;53.158;6.766;2024-03-08T01:36:03;7.70;;;5.03;;
51814;SDS011;37874;53.158;6.766;2024-03-08T01:38:29;5.88;;;4.70;;
51814;SDS011;37874;53.158;6.766;2024-03-08T01:41:10;6.10;;;5.00;;
51814;SDS011;37874;53.158;6.766;2024-03-08T01:43:38;6.50;;;4.93;;
51814;SDS011;37874;53.158;6.766;2024-03-08T01:48:47;5.50;;;4.57;;
51814;SDS011;37874;53.158;6.766;2024-03-08T01:53:46;6.03;;;4.88;;
51814;SDS011;37874;53.158;6.766;2024-03-08T01:56:13;6.03;;;4.78;;
51814;SDS011;37874;53.158;6.766;2024-03-08T01:58:40;6.00;;;4.70;;
51814;SDS011;37874;53.158;6.766;2024-03-08T02:01:12;6.97;;;5.00;;
51814;SDS011;37874;53.158;6.766;2024-03-08T02:03:42;7.18;;;4.78;;
51814;SDS011;37874;53.158;6.766;2024-03-08T02:06:28;6.30;;;5.00;;
51814;SDS011;37874;53.158;6.766;2024-03-08T02:08:54;5.97;;;4.47;;
51814;SDS011;37874;53.158;6.766;2024-03-08T02:11:20;6.57;;;4.85;;
51814;SDS011;37874;53.158;6.766;2024-03-08T02:13:48;5.93;;;4.80;;
51814;SDS011;37874;53.158;6.766;2024-03-08T02:16:20;5.50;;;4.63;;
51814;SDS011;37874;53.158;6.766;2024-03-08T02:18:50;7.10;;;4.90;;
51814;SDS011;37874;53.158;6.766;2024-03-08T02:21:17;6.10;;;4.65;;
51814;SDS011;37874;53.158;6.766;2024-03-08T02:23:46;5.90;;;4.50;;
51814;SDS011;37874;53.158;6.766;2024-03-08T02:26:15;6.07;;;4.90;;
51814;SDS011;37874;53.158;6.766;2024-03-08T02:28:44;5.95;;;4.68;;
51814;SDS011;37874;53.158;6.766;2024-03-08T02:31:15;6.10;;;4.90;;
51814;SDS011;37874;53.158;6.766;2024-03-08T02:33:43;6.78;;;5.10;;
51814;SDS011;37874;53.158;6.766;2024-03-08T02:36:10;6.25;;;4.47;;
51814;SDS011;37874;53.158;6.766;2024-03-08T02:38:53;7.07;;;4.88;;
51814;SDS011;37874;53.158;6.766;2024-03-08T02:41:20;6.45;;;5.03;;
51814;SDS011;37874;53.158;6.766;2024-03-08T02:43:51;5.82;;;4.72;;
51814;SDS011;37874;53.158;6.766;2024-03-08T02:46:16;5.55;;;4.20;;
51814;SDS011;37874;53.158;6.766;2024-03-08T02:48:43;6.75;;;4.95;;
51814;SDS011;37874;53.158;6.766;2024-03-08T02:51:10;6.13;;;4.70;;
51814;SDS011;37874;53.158;6.766;2024-03-08T02:53:35;5.82;;;4.60;;
51814;SDS011;37874;53.158;6.766;2024-03-08T02:56:02;6.82;;;4.85;;
51814;SDS011;37874;53.158;6.766;2024-03-08T02:58:32;6.63;;;4.93;;
51814;SDS011;37874;53.158;6.766;2024-03-08T03:00:58;5.45;;;4.40;;
51814;SDS011;37874;53.158;6.766;2024-03-08T03:03:25;5.20;;;4.35;;
51814;SDS011;37874;53.158;6.766;2024-03-08T03:05:52;6.50;;;4.57;;
51814;SDS011;37874;53.158;6.766;2024-03-08T03:08:21;5.68;;;4.55;;
51814;SDS011;37874;53.158;6.766;2024-03-08T03:10:48;6.82;;;4.82;;
51814;SDS011;37874;53.158;6.766;2024-03-08T03:13:15;6.55;;;5.07;;
51814;SDS011;37874;53.158;6.766;2024-03-08T03:15:41;6.32;;;4.65;;
51814;SDS011;37874;53.158;6.766;2024-03-08T03:18:07;6.55;;;4.65;;
51814;SDS011;37874;53.158;6.766;2024-03-08T03:20:34;6.20;;;4.70;;
51814;SDS011;37874;53.158;6.766;2024-03-08T03:23:07;6.70;;;4.82;;
51814;SDS011;37874;53.158;6.766;2024-03-08T03:25:35;6.35;;;4.75;;
51814;SDS011;37874;53.158;6.766;2024-03-08T03:28:04;6.40;;;4.88;;
51814;SDS011;37874;53.158;6.766;2024-03-08T03:30:31;5.88;;;4.32;;
51814;SDS011;37874;53.158;6.766;2024-03-08T03:33:00;7.70;;;4.78;;
51814;SDS011;37874;53.158;6.766;2024-03-08T03:35:27;6.68;;;5.13;;
51814;SDS011;37874;53.158;6.766;2024-03-08T03:38:09;5.93;;;4.70;;
51814;SDS011;37874;53.158;6.766;2024-03-08T03:40:39;6.20;;;4.63;;
51814;SDS011;37874;53.158;6.766;2024-03-08T03:43:06;6.55;;;4.55;;
51814;SDS011;37874;53.158;6.766;2024-03-08T03:45:32;5.97;;;4.50;;
51814;SDS011;37874;53.158;6.766;2024-03-08T03:48:01;6.18;;;4.82;;
51814;SDS011;37874;53.158;6.766;2024-03-08T03:50:28;6.38;;;4.18;;
51814;SDS011;37874;53.158;6.766;2024-03-08T03:55:28;6.10;;;4.72;;
51814;SDS011;37874;53.158;6.766;2024-03-08T03:57:54;5.20;;;4.13;;
51814;SDS011;37874;53.158;6.766;2024-03-08T04:00:20;7.47;;;4.60;;
51814;SDS011;37874;53.158;6.766;2024-03-08T04:02:47;6.47;;;4.63;;
51814;SDS011;37874;53.158;6.766;2024-03-08T04:05:20;6.22;;;4.43;;
51814;SDS011;37874;53.158;6.766;2024-03-08T04:07:53;5.82;;;4.03;;
51814;SDS011;37874;53.158;6.766;2024-03-08T04:10:19;5.82;;;4.47;;
51814;SDS011;37874;53.158;6.766;2024-03-08T04:12:45;5.47;;;3.92;;
51814;SDS011;37874;53.158;6.766;2024-03-08T04:15:13;5.80;;;4.35;;
51814;SDS011;37874;53.158;6.766;2024-03-08T04:17:41;6.18;;;4.25;;
51814;SDS011;37874;53.158;6.766;2024-03-08T04:22:40;6.28;;;4.63;;
51814;SDS011;37874;53.158;6.766;2024-03-08T04:25:07;5.57;;;4.20;;
51814;SDS011;37874;53.158;6.766;2024-03-08T04:27:36;5.18;;;4.35;;
51814;SDS011;37874;53.158;6.766;2024-03-08T04:30:05;7.63;;;4.60;;
51814;SDS011;37874;53.158;6.766;2024-03-08T04:32:35;6.43;;;4.10;;
51814;SDS011;37874;53.158;6.766;2024-03-08T04:37:36;5.57;;;4.10;;
51814;SDS011;37874;53.158;6.766;2024-03-08T04:40:03;5.43;;;4.32;;
51814;SDS011;37874;53.158;6.766;2024-03-08T04:42:30;4.65;;;3.83;;
51814;SDS011;37874;53.158;6.766;2024-03-08T04:47:28;5.95;;;3.90;;
51814;SDS011;37874;53.158;6.766;2024-03-08T04:52:30;6.63;;;4.07;;
51814;SDS011;37874;53.158;6.766;2024-03-08T04:54:56;5.80;;;4.28;;
51814;SDS011;37874;53.158;6.766;2024-03-08T04:57:22;6.10;;;4.15;;
51814;SDS011;37874;53.158;6.766;2024-03-08T04:59:49;5.53;;;4.00;;
51814;SDS011;37874;53.158;6.766;2024-03-08T05:02:15;5.65;;;4.32;;
51814;SDS011;37874;53.158;6.766;2024-03-08T05:04:43;5.18;;;3.70;;
51814;SDS011;37874;53.158;6.766;2024-03-08T05:07:08;6.00;;;4.13;;
51814;SDS011;37874;53.158;6.766;2024-03-08T05:09:41;5.90;;;4.10;;
51814;SDS011;37874;53.158;6.766;2024-03-08T05:12:10;6.47;;;4.43;;
51814;SDS011;37874;53.158;6.766;2024-03-08T05:14:52;5.20;;;3.80;;
51814;SDS011;37874;53.158;6.766;2024-03-08T05:17:20;6.15;;;4.00;;
51814;SDS011;37874;53.158;6.766;2024-03-08T05:19:52;5.78;;;4.03;;
51814;SDS011;37874;53.158;6.766;2024-03-08T05:22:26;5.53;;;3.80;;
51814;SDS011;37874;53.158;6.766;2024-03-08T05:24:53;5.18;;;3.70;;
51814;SDS011;37874;53.158;6.766;2024-03-08T05:27:18;5.65;;;4.15;;
51814;SDS011;37874;53.158;6.766;2024-03-08T05:29:44;5.68;;;3.90;;
51814;SDS011;37874;53.158;6.766;2024-03-08T05:32:11;5.40;;;3.83;;
51814;SDS011;37874;53.158;6.766;2024-03-08T05:34:40;5.28;;;3.72;;
51814;SDS011;37874;53.158;6.766;2024-03-08T05:37:13;5.00;;;3.90;;
51814;SDS011;37874;53.158;6.766;2024-03-08T05:39:41;5.03;;;3.90;;
51814;SDS011;37874;53.158;6.766;2024-03-08T05:42:07;4.65;;;3.53;;
51814;SDS011;37874;53.158;6.766;2024-03-08T05:47:05;4.32;;;3.45;;
51814;SDS011;37874;53.158;6.766;2024-03-08T05:49:36;5.15;;;3.95;;
51814;SDS011;37874;53.158;6.766;2024-03-08T05:52:05;5.80;;;4.20;;
51814;SDS011;37874;53.158;6.766;2024-03-08T05:54:37;4.70;;;3.75;;
51814;SDS011;37874;53.158;6.766;2024-03-08T05:57:03;5.55;;;3.80;;
51814;SDS011;37874;53.158;6.766;2024-03-08T05:59:29;6.18;;;3.80;;
51814;SDS011;37874;53.158;6.766;2024-03-08T06:01:56;4.97;;;3.92;;
51814;SDS011;37874;53.158;6.766;2024-03-08T06:04:23;5.18;;;3.72;;
51814;SDS011;37874;53.158;6.766;2024-03-08T06:06:49;5.07;;;3.80;;
51814;SDS011;37874;53.158;6.766;2024-03-08T06:09:31;5.65;;;4.00;;
51814;SDS011;37874;53.158;6.766;2024-03-08T06:14:42;5.68;;;3.53;;
51814;SDS011;37874;53.158;6.766;2024-03-08T06:17:19;5.93;;;4.00;;
51814;SDS011;37874;53.158;6.766;2024-03-08T06:19:45;4.75;;;3.58;;
51814;SDS011;37874;53.158;6.766;2024-03-08T06:22:14;4.82;;;3.53;;
51814;SDS011;37874;53.158;6.766;2024-03-08T06:24:40;6.05;;;3.55;;
51814;SDS011;37874;53.158;6.766;2024-03-08T06:27:09;6.00;;;3.83;;
51814;SDS011;37874;53.158;6.766;2024-03-08T06:29:35;4.75;;;3.55;;
51814;SDS011;37874;53.158;6.766;2024-03-08T06:32:02;5.82;;;3.85;;
51814;SDS011;37874;53.158;6.766;2024-03-08T06:34:28;5.43;;;3.60;;
51814;SDS011;37874;53.158;6.766;2024-03-08T06:39:29;5.00;;;3.38;;
51814;SDS011;37874;53.158;6.766;2024-03-08T06:41:57;6.25;;;4.00;;
51814;SDS011;37874;53.158;6.766;2024-03-08T06:44:26;5.22;;;3.80;;
51814;SDS011;37874;53.158;6.766;2024-03-08T06:46:53;6.40;;;3.88;;
51814;SDS011;37874;53.158;6.766;2024-03-08T06:49:19;9.45;;;4.80;;
51814;SDS011;37874;53.158;6.766;2024-03-08T06:51:46;6.03;;;4.15;;
51814;SDS011;37874;53.158;6.766;2024-03-08T06:54:17;5.95;;;4.30;;
51814;SDS011;37874;53.158;6.766;2024-03-08T06:59:20;6.18;;;4.40;;
51814;SDS011;37874;53.158;6.766;2024-03-08T07:01:47;5.85;;;4.32;;
51814;SDS011;37874;53.158;6.766;2024-03-08T07:04:13;7.32;;;4.50;;
51814;SDS011;37874;53.158;6.766;2024-03-08T07:06:39;6.80;;;4.40;;
51814;SDS011;37874;53.158;6.766;2024-03-08T07:09:07;7.45;;;4.63;;
51814;SDS011;37874;53.158;6.766;2024-03-08T07:11:35;6.15;;;4.30;;
51814;SDS011;37874;53.158;6.766;2024-03-08T07:14:02;6.55;;;4.65;;
51814;SDS011;37874;53.158;6.766;2024-03-08T07:16:31;6.00;;;4.38;;
51814;SDS011;37874;53.158;6.766;2024-03-08T07:18:59;6.18;;;4.35;;
51814;SDS011;37874;53.158;6.766;2024-03-08T07:21:34;7.20;;;4.13;;
51814;SDS011;37874;53.158;6.766;2024-03-08T07:24:00;7.13;;;4.63;;
51814;SDS011;37874;53.158;6.766;2024-03-08T07:29:00;6.65;;;4.50;;
51814;SDS011;37874;53.158;6.766;2024-03-08T07:31:27;8.98;;;4.68;;
51814;SDS011;37874;53.158;6.766;2024-03-08T07:34:15;7.05;;;4.20;;
51814;SDS011;37874;53.158;6.766;2024-03-08T07:36:47;6.82;;;4.35;;
51814;SDS011;37874;53.158;6.766;2024-03-08T07:39:19;5.03;;;3.57;;
51814;SDS011;37874;53.158;6.766;2024-03-08T07:41:59;6.03;;;4.00;;
51814;SDS011;37874;53.158;6.766;2024-03-08T07:44:27;7.75;;;3.95;;
51814;SDS011;37874;53.158;6.766;2024-03-08T07:47:00;6.78;;;4.53;;
51814;SDS011;37874;53.158;6.766;2024-03-08T07:49:26;6.07;;;3.85;;
51814;SDS011;37874;53.158;6.766;2024-03-08T07:51:55;7.05;;;4.07;;
51814;SDS011;37874;53.158;6.766;2024-03-08T07:54:32;6.78;;;4.30;;
51814;SDS011;37874;53.158;6.766;2024-03-08T07:57:11;8.63;;;4.63;;
51814;SDS011;37874;53.158;6.766;2024-03-08T07:59:37;5.55;;;3.60;;
51814;SDS011;37874;53.158;6.766;2024-03-08T08:02:05;7.00;;;3.97;;
51814;SDS011;37874;53.158;6.766;2024-03-08T08:04:31;6.65;;;4.38;;
51814;SDS011;37874;53.158;6.766;2024-03-08T08:07:10;5.32;;;3.65;;
51814;SDS011;37874;53.158;6.766;2024-03-08T08:09:36;5.80;;;4.18;;
51814;SDS011;37874;53.158;6.766;2024-03-08T08:12:06;6.18;;;4.22;;
51814;SDS011;37874;53.158;6.766;2024-03-08T08:19:34;10.43;;;4.38;;
51814;SDS011;37874;53.158;6.766;2024-03-08T08:22:03;7.47;;;4.53;;
51814;SDS011;37874;53.158;6.766;2024-03-08T08:24:29;10.35;;;4.57;;
51814;SDS011;37874;53.158;6.766;2024-03-08T08:27:01;7.05;;;4.22;;
51814;SDS011;37874;53.158;6.766;2024-03-08T08:29:26;6.10;;;4.30;;
51814;SDS011;37874;53.158;6.766;2024-03-08T08:32:04;7.07;;;3.90;;
51814;SDS011;37874;53.158;6.766;2024-03-08T08:34:35;5.70;;;4.20;;
51814;SDS011;37874;53.158;6.766;2024-03-08T08:37:02;6.03;;;3.75;;
51814;SDS011;37874;53.158;6.766;2024-03-08T08:39:29;12.13;;;4.47;;
51814;SDS011;37874;53.158;6.766;2024-03-08T08:41:54;7.00;;;4.15;;
51814;SDS011;37874;53.158;6.766;2024-03-08T08:44:21;6.00;;;4.22;;
51814;SDS011;37874;53.158;6.766;2024-03-08T08:46:49;6.05;;;4.22;;
51814;SDS011;37874;53.158;6.766;2024-03-08T08:49:15;7.45;;;4.60;;
51814;SDS011;37874;53.158;6.766;2024-03-08T08:51:48;6.93;;;4.85;;
51814;SDS011;37874;53.158;6.766;2024-03-08T08:54:15;7.10;;;4.47;;
51814;SDS011;37874;53.158;6.766;2024-03-08T08:56:45;6.90;;;4.57;;
51814;SDS011;37874;53.158;6.766;2024-03-08T08:59:13;6.40;;;4.53;;
51814;SDS011;37874;53.158;6.766;2024-03-08T09:01:41;7.65;;;4.60;;
51814;SDS011;37874;53.158;6.766;2024-03-08T09:04:14;7.97;;;4.82;;
51814;SDS011;37874;53.158;6.766;2024-03-08T09:06:44;6.13;;;4.40;;
51814;SDS011;37874;53.158;6.766;2024-03-08T09:09:14;7.00;;;4.78;;
51814;SDS011;37874;53.158;6.766;2024-03-08T09:11:48;6.47;;;4.25;;
51814;SDS011;37874;53.158;6.766;2024-03-08T09:14:15;7.80;;;4.70;;
51814;SDS011;37874;53.158;6.766;2024-03-08T09:16:47;7.70;;;4.93;;
51814;SDS011;37874;53.158;6.766;2024-03-08T09:19:14;7.22;;;4.57;;
51814;SDS011;37874;53.158;6.766;2024-03-08T09:21:43;7.40;;;4.50;;
51814;SDS011;37874;53.158;6.766;2024-03-08T09:24:09;7.35;;;4.38;;
51814;SDS011;37874;53.158;6.766;2024-03-08T09:26:36;9.13;;;4.97;;
51814;SDS011;37874;53.158;6.766;2024-03-08T09:29:02;7.38;;;4.15;;
51814;SDS011;37874;53.158;6.766;2024-03-08T09:31:28;6.43;;;4.10;;
51814;SDS011;37874;53.158;6.766;2024-03-08T09:33:57;8.77;;;5.03;;
51814;SDS011;37874;53.158;6.766;2024-03-08T09:36:24;6.45;;;4.47;;
51814;SDS011;37874;53.158;6.766;2024-03-08T09:38:52;7.65;;;4.40;;
51814;SDS011;37874;53.158;6.766;2024-03-08T09:41:24;7.10;;;4.68;;
51814;SDS011;37874;53.158;6.766;2024-03-08T09:43:52;7.28;;;4.60;;
51814;SDS011;37874;53.158;6.766;2024-03-08T09:46:18;8.32;;;4.47;;
51814;SDS011;37874;53.158;6.766;2024-03-08T09:48:47;7.70;;;4.70;;
51814;SDS011;37874;53.158;6.766;2024-03-08T09:51:13;7.40;;;4.68;;
51814;SDS011;37874;53.158;6.766;2024-03-08T09:53:41;6.80;;;4.40;;
51814;SDS011;37874;53.158;6.766;2024-03-08T09:56:16;7.47;;;4.40;;
51814;SDS011;37874;53.158;6.766;2024-03-08T10:01:39;7.05;;;4.38;;
51814;SDS011;37874;53.158;6.766;2024-03-08T10:04:09;6.43;;;4.30;;
51814;SDS011;37874;53.158;6.766;2024-03-08T10:06:37;5.93;;;4.20;;
51814;SDS011;37874;53.158;6.766;2024-03-08T10:09:03;6.68;;;4.20;;
51814;SDS011;37874;53.158;6.766;2024-03-08T10:11:31;5.70;;;4.43;;
51814;SDS011;37874;53.158;6.766;2024-03-08T10:13:57;7.13;;;4.57;;
51814;SDS011;37874;53.158;6.766;2024-03-08T10:16:22;7.15;;;4.93;;
51814;SDS011;37874;53.158;6.766;2024-03-08T10:18:52;7.28;;;4.57;;
51814;SDS011;37874;53.158;6.766;2024-03-08T10:21:18;6.32;;;4.68;;
51814;SDS011;37874;53.158;6.766;2024-03-08T10:23:45;6.70;;;4.63;;
51814;SDS011;37874;53.158;6.766;2024-03-08T10:26:21;6.00;;;4.60;;
51814;SDS011;37874;53.158;6.766;2024-03-08T10:28:52;7.23;;;5.23;;
51814;SDS011;37874;53.158;6.766;2024-03-08T10:31:18;6.07;;;4.32;;
51814;SDS011;37874;53.158;6.766;2024-03-08T10:33:52;6.75;;;4.40;;
51814;SDS011;37874;53.158;6.766;2024-03-08T10:36:19;5.57;;;4.30;;
51814;SDS011;37874;53.158;6.766;2024-03-08T10:38:45;6.25;;;4.47;;
51814;SDS011;37874;53.158;6.766;2024-03-08T10:41:23;6.80;;;5.00;;
51814;SDS011;37874;53.158;6.766;2024-03-08T10:49:30;5.63;;;4.10;;
51814;SDS011;37874;53.158;6.766;2024-03-08T10:52:05;7.72;;;4.47;;
51814;SDS011;37874;53.158;6.766;2024-03-08T10:54:36;6.65;;;4.50;;
51814;SDS011;37874;53.158;6.766;2024-03-08T10:57:06;6.28;;;4.20;;
51814;SDS011;37874;53.158;6.766;2024-03-08T10:59:34;5.93;;;4.30;;
51814;SDS011;37874;53.158;6.766;2024-03-08T11:02:09;5.93;;;4.30;;
51814;SDS011;37874;53.158;6.766;2024-03-08T11:04:38;5.50;;;3.88;;
51814;SDS011;37874;53.158;6.766;2024-03-08T11:07:12;6.22;;;4.35;;
51814;SDS011;37874;53.158;6.766;2024-03-08T11:09:47;5.82;;;4.63;;
51814;SDS011;37874;53.158;6.766;2024-03-08T11:12:27;6.47;;;4.43;;
51814;SDS011;37874;53.158;6.766;2024-03-08T11:15:14;6.25;;;4.28;;
51814;SDS011;37874;53.158;6.766;2024-03-08T11:17:47;5.90;;;4.40;;
51814;SDS011;37874;53.158;6.766;2024-03-08T11:20:14;6.55;;;4.30;;
51814;SDS011;37874;53.158;6.766;2024-03-08T11:22:53;5.35;;;4.13;;
51814;SDS011;37874;53.158;6.766;2024-03-08T11:25:33;5.90;;;4.10;;
51814;SDS011;37874;53.158;6.766;2024-03-08T11:28:13;6.40;;;3.92;;
51814;SDS011;37874;53.158;6.766;2024-03-08T11:33:44;5.53;;;4.20;;
51814;SDS011;37874;53.158;6.766;2024-03-08T11:36:19;5.90;;;3.90;;
51814;SDS011;37874;53.158;6.766;2024-03-08T11:38:47;7.30;;;4.10;;
51814;SDS011;37874;53.158;6.766;2024-03-08T11:41:19;5.68;;;4.15;;
51814;SDS011;37874;53.158;6.766;2024-03-08T11:46:36;5.50;;;4.25;;
51814;SDS011;37874;53.158;6.766;2024-03-08T11:49:04;6.00;;;4.22;;
51814;SDS011;37874;53.158;6.766;2024-03-08T11:54:02;6.38;;;4.10;;
51814;SDS011;37874;53.158;6.766;2024-03-08T11:56:29;6.47;;;4.22;;
51814;SDS011;37874;53.158;6.766;2024-03-08T11:58:57;6.45;;;4.10;;
51814;SDS011;37874;53.158;6.766;2024-03-08T12:01:31;6.07;;;3.95;;
51814;SDS011;37874;53.158;6.766;2024-03-08T12:03:57;6.57;;;4.40;;
51814;SDS011;37874;53.158;6.766;2024-03-08T12:06:35;5.45;;;3.90;;
51814;SDS011;37874;53.158;6.766;2024-03-08T12:09:15;6.10;;;4.13;;
51814;SDS011;37874;53.158;6.766;2024-03-08T12:11:41;5.85;;;4.57;;
51814;SDS011;37874;53.158;6.766;2024-03-08T12:14:15;5.80;;;4.22;;
51814;SDS011;37874;53.158;6.766;2024-03-08T12:16:43;5.82;;;4.00;;
51814;SDS011;37874;53.158;6.766;2024-03-08T12:19:09;4.95;;;3.97;;
51814;SDS011;37874;53.158;6.766;2024-03-08T12:21:41;5.32;;;3.95;;
51814;SDS011;37874;53.158;6.766;2024-03-08T12:24:15;6.00;;;4.07;;
51814;SDS011;37874;53.158;6.766;2024-03-08T12:26:45;5.78;;;3.80;;
51814;SDS011;37874;53.158;6.766;2024-03-08T12:29:34;5.40;;;4.07;;
51814;SDS011;37874;53.158;6.766;2024-03-08T12:32:04;5.50;;;4.30;;
51814;SDS011;37874;53.158;6.766;2024-03-08T12:34:31;5.75;;;4.13;;
51814;SDS011;37874;53.158;6.766;2024-03-08T12:37:03;5.57;;;3.97;;
51814;SDS011;37874;53.158;6.766;2024-03-08T12:39:33;6.43;;;4.30;;
51814;SDS011;37874;53.158;6.766;2024-03-08T12:42:01;5.00;;;4.18;;
51814;SDS011;37874;53.158;6.766;2024-03-08T12:44:27;6.10;;;4.07;;
51814;SDS011;37874;53.158;6.766;2024-03-08T12:46:57;6.78;;;4.63;;
51814;SDS011;37874;53.158;6.766;2024-03-08T12:49:26;7.38;;;4.50;;
51814;SDS011;37874;53.158;6.766;2024-03-08T12:51:57;6.40;;;4.70;;
51814;SDS011;37874;53.158;6.766;2024-03-08T12:54:23;5.75;;;4.35;;
51814;SDS011;37874;53.158;6.766;2024-03-08T12:57:00;6.15;;;4.78;;
51814;SDS011;37874;53.158;6.766;2024-03-08T12:59:27;5.50;;;4.28;;
51814;SDS011;37874;53.158;6.766;2024-03-08T13:01:56;7.78;;;4.80;;
51814;SDS011;37874;53.158;6.766;2024-03-08T13:04:30;6.25;;;4.53;;
51814;SDS011;37874;53.158;6.766;2024-03-08T13:06:56;6.18;;;4.47;;
51814;SDS011;37874;53.158;6.766;2024-03-08T13:09:24;8.73;;;4.70;;
51814;SDS011;37874;53.158;6.766;2024-03-08T13:11:55;6.40;;;4.60;;
51814;SDS011;37874;53.158;6.766;2024-03-08T13:17:02;7.95;;;5.35;;
51814;SDS011;37874;53.158;6.766;2024-03-08T13:19:31;8.07;;;5.90;;
51814;SDS011;37874;53.158;6.766;2024-03-08T13:21:58;7.47;;;5.50;;
51814;SDS011;37874;53.158;6.766;2024-03-08T13:24:24;8.05;;;5.60;;
51814;SDS011;37874;53.158;6.766;2024-03-08T13:27:07;8.52;;;5.18;;
51814;SDS011;37874;53.158;6.766;2024-03-08T13:29:51;8.38;;;5.50;;
51814;SDS011;37874;53.158;6.766;2024-03-08T13:32:24;7.05;;;5.00;;
51814;SDS011;37874;53.158;6.766;2024-03-08T13:34:51;6.78;;;4.95;;
51814;SDS011;37874;53.158;6.766;2024-03-08T13:37:19;8.95;;;5.00;;
51814;SDS011;37874;53.158;6.766;2024-03-08T13:39:52;10.23;;;5.47;;
51814;SDS011;37874;53.158;6.766;2024-03-08T13:42:24;6.85;;;4.80;;
51814;SDS011;37874;53.158;6.766;2024-03-08T13:44:54;7.25;;;5.00;;
51814;SDS011;37874;53.158;6.766;2024-03-08T13:47:24;6.72;;;4.97;;
51814;SDS011;37874;53.158;6.766;2024-03-08T13:49:49;7.05;;;4.90;;
51814;SDS011;37874;53.158;6.766;2024-03-08T13:52:16;8.82;;;5.25;;
51814;SDS011;37874;53.158;6.766;2024-03-08T13:54:42;8.05;;;5.20;;
51814;SDS011;37874;53.158;6.766;2024-03-08T13:57:09;7.15;;;5.35;;
51814;SDS011;37874;53.158;6.766;2024-03-08T14:02:06;8.07;;;5.97;;
51814;SDS011;37874;53.158;6.766;2024-03-08T14:04:37;9.00;;;5.57;;
51814;SDS011;37874;53.158;6.766;2024-03-08T14:07:04;8.55;;;6.20;;
51814;SDS011;37874;53.158;6.766;2024-03-08T14:09:36;7.13;;;5.45;;
51814;SDS011;37874;53.158;6.766;2024-03-08T14:12:05;7.80;;;5.70;;
51814;SDS011;37874;53.158;6.766;2024-03-08T14:14:32;7.32;;;5.45;;
51814;SDS011;37874;53.158;6.766;2024-03-08T14:17:03;7.63;;;5.30;;
51814;SDS011;37874;53.158;6.766;2024-03-08T14:19:29;8.60;;;5.35;;
51814;SDS011;37874;53.158;6.766;2024-03-08T14:24:36;6.88;;;5.53;;
51814;SDS011;37874;53.158;6.766;2024-03-08T14:27:08;8.13;;;5.60;;
51814;SDS011;37874;53.158;6.766;2024-03-08T14:29:35;7.78;;;5.72;;
51814;SDS011;37874;53.158;6.766;2024-03-08T14:32:07;7.60;;;5.57;;
51814;SDS011;37874;53.158;6.766;2024-03-08T14:34:36;9.10;;;6.13;;
51814;SDS011;37874;53.158;6.766;2024-03-08T14:37:02;6.97;;;5.55;;
51814;SDS011;37874;53.158;6.766;2024-03-08T14:39:36;7.00;;;5.47;;
51814;SDS011;37874;53.158;6.766;2024-03-08T14:42:06;7.88;;;6.07;;
51814;SDS011;37874;53.158;6.766;2024-03-08T14:44:33;5.90;;;5.20;;
51814;SDS011;37874;53.158;6.766;2024-03-08T14:47:01;7.80;;;5.18;;
51814;SDS011;37874;53.158;6.766;2024-03-08T14:49:30;8.30;;;5.15;;
51814;SDS011;37874;53.158;6.766;2024-03-08T14:51:58;7.25;;;5.05;;
51814;SDS011;37874;53.158;6.766;2024-03-08T14:54:23;6.22;;;4.53;;
51814;SDS011;37874;53.158;6.766;2024-03-08T14:56:51;6.65;;;4.80;;
51814;SDS011;37874;53.158;6.766;2024-03-08T14:59:20;6.75;;;4.20;;
51814;SDS011;37874;53.158;6.766;2024-03-08T15:01:46;7.47;;;4.60;;
51814;SDS011;37874;53.158;6.766;2024-03-08T15:04:13;6.00;;;4.80;;
51814;SDS011;37874;53.158;6.766;2024-03-08T15:06:38;6.38;;;4.50;;
51814;SDS011;37874;53.158;6.766;2024-03-08T15:09:05;6.32;;;4.65;;
51814;SDS011;37874;53.158;6.766;2024-03-08T15:11:38;5.75;;;4.20;;
51814;SDS011;37874;53.158;6.766;2024-03-08T15:14:05;5.72;;;4.35;;
51814;SDS011;37874;53.158;6.766;2024-03-08T15:16:40;5.85;;;4.53;;
51814;SDS011;37874;53.158;6.766;2024-03-08T15:19:13;5.88;;;4.00;;
51814;SDS011;37874;53.158;6.766;2024-03-08T15:21:50;7.20;;;4.18;;
51814;SDS011;37874;53.158;6.766;2024-03-08T15:24:22;6.07;;;3.95;;
51814;SDS011;37874;53.158;6.766;2024-03-08T15:33:30;5.25;;;3.60;;
51814;SDS011;37874;53.158;6.766;2024-03-08T15:35:58;8.82;;;4.03;;
51814;SDS011;37874;53.158;6.766;2024-03-08T15:38:30;6.28;;;3.88;;
51814;SDS011;37874;53.158;6.766;2024-03-08T15:41:10;5.43;;;3.97;;
51814;SDS011;37874;53.158;6.766;2024-03-08T15:43:39;5.95;;;3.75;;
51814;SDS011;37874;53.158;6.766;2024-03-08T15:46:09;6.03;;;3.72;;
51814;SDS011;37874;53.158;6.766;2024-03-08T15:48:44;5.60;;;3.90;;
51814;SDS011;37874;53.158;6.766;2024-03-08T15:51:13;4.77;;;3.53;;
51814;SDS011;37874;53.158;6.766;2024-03-08T15:53:41;5.55;;;3.53;;
51814;SDS011;37874;53.158;6.766;2024-03-08T15:56:13;5.88;;;3.78;;
51814;SDS011;37874;53.158;6.766;2024-03-08T15:58:43;5.50;;;3.50;;
51814;SDS011;37874;53.158;6.766;2024-03-08T16:01:11;6.50;;;3.70;;
51814;SDS011;37874;53.158;6.766;2024-03-08T16:03:41;4.78;;;3.38;;
51814;SDS011;37874;53.158;6.766;2024-03-08T16:06:18;5.05;;;3.50;;
51814;SDS011;37874;53.158;6.766;2024-03-08T16:08:48;5.03;;;3.50;;
51814;SDS011;37874;53.158;6.766;2024-03-08T16:11:15;5.90;;;3.53;;